Weather observations for the past three days for
Bar Harbor, Hancock County-Bar Harbor Airport
Metric (Imperial)
Date Time (edt) Wind (kph) Vis. (km) Weather Sky Cond. Temperature (ºC) Relative Humidity Wind Chill (°C) Heat Index (°C) Pressure Precipitation (cm)
Air Dwpt 6 hour altimeter (cm) sea level (mb) 1 hr 3 hr 6 hr
Max. Min.
03 23:56 N 6 1.61 Fog/Mist OVC003 16.1 16.1 100% 75.84 1011.1
03 22:56 Calm 4.83 Fog/Mist OVC003 16.1 16.1 100% 75.87 1011.5
03 21:56 NE 6 4.02 Fog/Mist OVC003 16.1 16.1 100% 75.9 1011.8
03 20:56 NE 6 4.83 Fog/Mist OVC003 16.1 16.1 100% 75.92 1012.2
03 19:56 E 6 6.44 Light Rain Fog/Mist OVC003 16.1 16.1 17.2 16.1 100% 75.95 1012.5
03 17:56 Calm 9.66 Light Rain Fog/Mist BKN009 OVC013 16.7 16.7 100% 76 1013.3
03 16:56 SE 7 3.22 Light Rain Fog/Mist OVC005 16.7 16.7 100% 76.02 1013.6
03 15:56 SE 6 3.22 Light Rain Fog/Mist OVC005 16.7 16.7 100% 76.07 1014.2
03 14:56 E 7 2.41 Light Rain Fog/Mist BKN005 OVC010 16.1 16.1 100% 76.12 1014.9
03 13:56 Calm 8.05 Light Rain Fog/Mist BKN005 BKN010 OVC015 16.7 16.1 17.8 16.7 96% 76.15 1015.4
03 12:56 S 13 6.44 Light Rain Fog/Mist SCT005 BKN008 OVC014 16.7 16.1 96% 76.2 1016.0
03 10:56 SE 9 6.44 Rain Fog/Mist OVC005 17.8 17.8 100% 76.25 1016.7
03 09:56 SE 15 6.44 Rain Fog/Mist FEW008 BKN012 OVC050 17.2 17.2 100% 76.25 1016.6
03 08:56 SE 9 11.27 Light Rain OVC006 17.2 17.2 100% 76.3 1017.4
03 07:56 E 7 6.44 Light Rain Fog/Mist SCT008 BKN031 OVC044 17.2 16.7 17.2 15.6 97% 76.33 1017.8
03 05:56 SE 7 16.09 Overcast OVC008 16.7 16.1 96% 76.35 1018.0
03 04:56 E 6 16.09 Overcast OVC006 16.1 15.6 97% 76.38 1018.3
03 02:56 Calm 16.09 Overcast OVC004 15.6 15 96% 76.5 1020.1
03 01:56 N 6 16.09 Overcast OVC004 15 14.4 15 13.3 96% 76.53 1020.5
03 00:56 Calm 16.09 Overcast OVC004 14.4 14.4 100% 76.56 1020.9
02 23:56 E 6 16.09 Overcast OVC006 14.4 13.9 97% 76.58 1021.1
02 22:56 Calm 16.09 Mostly Cloudy SCT008 BKN080 14.4 13.9 97% 76.63 1021.8
02 21:56 Calm 16.09 Fair CLR 13.3 12.8 97% 76.63 1021.8
02 20:56 E 7 16.09 Fair CLR 13.9 13.3 96% 76.63 1021.8
02 18:56 E 11 16.09 Fair CLR 15.6 12.8 84% 76.68 1022.4
02 17:56 E 9 16.09 Fair CLR 16.7 12.8 78% 76.68 1022.5
02 16:56 Vrbl 11 16.09 Fair CLR 17.8 12.2 70% 76.71 1022.7
02 15:56 E 11 16.09 Fair CLR 19.4 11.1 59% 76.73 1023.2
02 14:56 SE 11 16.09 Fair CLR 20 11.1 57% 76.73 1023.0
02 13:56 E 11 16.09 Fair CLR 20.6 11.7 20.6 15 57% 76.73 1023.3
02 12:56 E 17 16.09 Fair CLR 20.6 11.7 57% 76.78 1023.7
02 11:56 E 13 16.09 Fair CLR 20 11.7 59% 76.78 1023.9
02 10:56 E 13 16.09 Fair CLR 19.4 12.8 66% 76.78 1023.9
02 09:56 E 9 16.09 Fair CLR 18.3 13.3 73% 76.78 1024.0
02 05:56 N 9 16.09 Fair CLR 10 10 100% 9 76.76 1023.4
02 04:56 N 6 16.09 Fair CLR 9.4 8.9 97% 76.76 1023.3
02 03:56 N 6 16.09 Fair CLR 10 9.4 96% 76.73 1023.0
02 02:56 N 7 16.09 Fair CLR 10.6 10 96% 76.68 1022.5
02 01:56 N 6 16.09 Fair CLR 10.6 10 15 10.6 96% 76.68 1022.4
01 23:56 Calm 16.09 Fair CLR 11.1 11.1 100% 76.61 1021.4
01 20:56 Calm 16.09 Fair CLR 13.9 11.7 87% 76.56 1020.7
01 19:56 Calm 16.09 Fair CLR 15 12.2 22.8 15 83% 76.53 1020.5
01 18:56 E 7 16.09 Fair CLR 18.3 11.7 66% 76.48 1019.9
01 16:56 Vrbl 6 16.09 Fair CLR 21.1 11.1 53% 76.43 1019.1
01 15:56 E 13 G 26 16.09 Fair CLR 21.1 10.6 51% 76.43 1019.2
01 14:56 E 17 16.09 Fair CLR 22.2 11.1 50% 76.4 1018.9
01 12:56 E 17 16.09 Fair CLR 21.7 12.8 57% 76.4 1018.8
01 10:56 E 7 16.09 Fair CLR 21.7 12.2 55% 76.43 1019.2
01 08:56 SE 6 16.09 A Few Clouds FEW070 17.8 12.8 73% 76.43 1019.1
01 07:56 N 7 16.09 Overcast OVC070 13.9 11.7 13.9 8.9 87% 76.4 1018.9
01 06:56 N 6 16.09 Fair CLR 11.1 10.6 97% 76.4 1018.6
01 05:56 N 7 16.09 Fair CLR 8.9 8.9 100% 8 76.38 1018.3
01 04:56 Calm 16.09 Fair CLR 8.9 8.9 100% 76.38 1018.4
01 03:56 Calm 16.09 Fair CLR 10 9.4 96% 76.4 1018.6
01 02:56 W 6 16.09 Fair CLR 10.6 10 96% 76.38 1018.5
01 01:56 N 6 16.09 Fair CLR 10 8.9 17.2 10 93% 76.38 1018.4
Date Time (edt) Wind (kph) Vis. (km) Weather Sky Cond. Air Dwpt Max. Min. Relative Humidity Wind Chill (°C) Heat Index (°C) altimeter (cm) sea level (mb) 1 hr 3 hr 6 hr
6 hour
Temperature (ºC) Pressure Precipitation (cm)